logo
Rechercher aéroport 
image banner adimage banner adimage banner ad
image banner ad

YPIE - Point Piper

Situé à Point Piper, Australia

ICAO - , IATA -

Données fournies par Airmate  

Information générale

Coordonnées: S33°52'0" E151°15'0"
Élévation : 126 feet MSL.
Variation magnétique : 13° East
Voir autres Aéroports à (unassigned)

Données opérationnelles

Special qualification required
Heure actuelle UTC:
Heure actuelle locale:
Météo à : YSSY - Sydney / Kingsford Smith ( 11 km )
METAR: YSSY 281830Z AUTO 33006KT 9999 // NCD 10/08 Q1028 RF00.0/000.0
TAF: TAF YSSY 281715Z 2818/3000 32008KT CAVOK FM290400 04012KT CAVOK FM291100 30008KT CAVOK
Voir NOTAMs / SUP AIP / TFR affectant cet aéroport [VIEW]
Fréquences de communication: [VIEW]

Pistes:

Coordonnées de l'aéroport

Adresse: Point Piper Australia

Vue satellite de YPIE